Walthall, Mississippi
Current Conditions -  °F | °C
As of 6:15 PM on Friday 28 Nov 2014 (Local Time) from KSTF Reporting Station
Clear Clear  
Wind Chill: 43°   Ceiling: Unl
Heat Index: 43°   Visibility: NA
Dew Point: 30°   Wind: 3mph
Humidity: 61%   Direction: 150°SSE
Pressure: 30.24"   Gusts: NA
Location:  33.61°N, 89.28°W
Report Text: KSTF 290015Z AUTO 15003KT CLR 06/M01 A3024 RMK AO2 PWINO
Loading
Personal Weather Stations






























Interactive Weather Map New forecast layout! Learn more

10-Day Weather Forecast

Advertisements
Track Severe Weather on mobile